Time;durP1;ratioP1;P1;durP2;ratioP2;P2;SDS_P1;SDS_P2;PMS_P1;PMS_P2;Temp;Humidity;BMP_temperature;BMP_pressure;BME280_temperature;BME280_humidity;BME280_pressure;Samples;Min_cycle;Max_cycle;Signal;HPM_P1;HPM_P2
2020/12/11 00:00:27;;;;;;;28.37;17.67;;;3.40;99.90;;;;;;5073161;28;20198;-65
2020/12/11 00:02:53;;;;;;;27.20;15.53;;;3.30;99.90;;;;;;5073238;28;20173;-65
2020/12/11 00:05:18;;;;;;;29.20;18.50;;;3.30;99.90;;;;;;5072756;28;20182;-65
2020/12/11 00:07:44;;;;;;;31.50;18.67;;;3.40;99.90;;;;;;5073078;28;20177;-65
2020/12/11 00:10:11;;;;;;;27.40;18.00;;;3.40;99.90;;;;;;5072980;28;20281;-65
2020/12/11 00:12:37;;;;;;;26.67;17.33;;;3.30;99.90;;;;;;5072875;28;20262;-64
2020/12/11 00:15:07;;;;;;;26.33;17.00;;;3.30;99.90;;;;;;5072790;28;20957;-64
2020/12/11 00:17:34;;;;;;;25.90;16.97;;;3.30;99.90;;;;;;5076753;28;20813;-64
2020/12/11 00:19:59;;;;;;;31.30;17.30;;;3.40;99.90;;;;;;5076879;28;20431;-64
2020/12/11 00:22:25;;;;;;;26.53;16.60;;;3.40;99.90;;;;;;5076761;28;20430;-64
2020/12/11 00:24:51;;;;;;;26.50;16.87;;;3.50;99.90;;;;;;5076733;28;20320;-65
2020/12/11 00:27:17;;;;;;;24.90;16.20;;;3.50;99.90;;;;;;5076762;28;20262;-65
2020/12/11 00:29:43;;;;;;;25.50;16.50;;;3.40;99.90;;;;;;5076522;28;20521;-65
2020/12/11 00:32:08;;;;;;;26.30;17.50;;;3.40;99.90;;;;;;5076659;28;20168;-64
2020/12/11 00:34:34;;;;;;;25.93;16.03;;;3.40;99.90;;;;;;5076494;28;20207;-65
2020/12/11 00:37:00;;;;;;;28.47;18.40;;;3.40;99.90;;;;;;5076543;28;20253;-65
2020/12/11 00:39:26;;;;;;;28.63;16.50;;;3.30;99.90;;;;;;5076445;28;20932;-63
2020/12/11 00:41:52;;;;;;;29.50;17.67;;;3.40;99.90;;;;;;5076478;28;20504;-63
2020/12/11 00:44:17;;;;;;;32.00;18.70;;;3.30;99.90;;;;;;5075995;28;20885;-63
2020/12/11 00:46:43;;;;;;;29.50;17.90;;;3.30;99.90;;;;;;5076316;28;20173;-63
2020/12/11 00:49:09;;;;;;;29.23;17.63;;;3.20;99.90;;;;;;5076259;28;20592;-63
2020/12/11 00:51:34;;;;;;;35.27;18.17;;;3.20;99.90;;;;;;5076209;28;20579;-63
2020/12/11 00:54:00;;;;;;;28.77;17.60;;;3.20;99.90;;;;;;5075998;28;20239;-64
2020/12/11 00:56:26;;;;;;;29.70;17.87;;;3.30;99.90;;;;;;5076065;28;20185;-65
2020/12/11 00:58:51;;;;;;;27.27;16.43;;;3.30;99.90;;;;;;5076211;28;20175;-64
2020/12/11 01:01:17;;;;;;;25.70;17.10;;;3.30;99.90;;;;;;5076087;28;20628;-64
2020/12/11 01:03:43;;;;;;;25.60;18.77;;;3.30;99.90;;;;;;5076017;28;20195;-64
2020/12/11 01:06:08;;;;;;;28.03;17.90;;;3.20;99.90;;;;;;5076314;28;20702;-65
2020/12/11 01:08:34;;;;;;;32.00;20.13;;;3.30;99.90;;;;;;5075858;28;20174;-66
2020/12/11 01:11:00;;;;;;;32.43;17.53;;;3.40;99.90;;;;;;5076010;28;20185;-66
2020/12/11 01:13:26;;;;;;;29.13;17.47;;;3.30;99.90;;;;;;5075786;28;20173;-67
2020/12/11 01:15:51;;;;;;;27.77;18.33;;;3.40;99.90;;;;;;5075777;28;20844;-67
2020/12/11 01:18:17;;;;;;;32.60;17.13;;;3.20;99.90;;;;;;5075780;28;20171;-67
2020/12/11 01:20:42;;;;;;;25.83;16.93;;;3.20;99.90;;;;;;5075717;28;20655;-67
2020/12/11 01:23:08;;;;;;;25.70;17.17;;;3.20;99.90;;;;;;5075726;28;20179;-67
2020/12/11 01:25:34;;;;;;;30.20;18.07;;;3.20;99.90;;;;;;5075625;28;20185;-67
2020/12/11 01:28:00;;;;;;;31.93;17.87;;;3.10;99.90;;;;;;5075250;28;20257;-67
2020/12/11 01:30:25;;;;;;;24.77;15.87;;;3.20;99.90;;;;;;5075568;28;20172;-67
2020/12/11 01:32:51;;;;;;;28.90;16.73;;;3.30;99.90;;;;;;5075517;28;20426;-67
2020/12/11 01:35:16;;;;;;;27.60;15.80;;;3.30;99.90;;;;;;5075380;28;20208;-67
2020/12/11 01:37:42;;;;;;;32.63;17.77;;;3.40;99.90;;;;;;5075444;28;20221;-67
2020/12/11 01:40:08;;;;;;;26.87;16.27;;;3.50;99.90;;;;;;5075414;28;20221;-68
2020/12/11 01:42:33;;;;;;;29.20;16.67;;;3.40;99.90;;;;;;5075280;28;20176;-67
2020/12/11 01:44:59;;;;;;;25.93;16.20;;;3.50;99.90;;;;;;5075376;28;20630;-67
2020/12/11 01:47:24;;;;;;;25.87;18.10;;;3.40;99.90;;;;;;5075242;28;20175;-67
2020/12/11 01:49:53;;;;;;;32.20;17.40;;;3.30;99.90;;;;;;5075225;28;20533;-67
2020/12/11 01:52:19;;;;;;;29.70;17.87;;;3.30;99.90;;;;;;5075119;28;20174;-65
2020/12/11 01:54:46;;;;;;;27.40;17.03;;;3.30;99.90;;;;;;5074799;28;20494;-66
2020/12/11 01:57:22;;;;;;;30.20;18.13;;;3.40;99.90;;;;;;5074997;28;20425;-66
2020/12/11 01:59:52;;;;;;;26.13;17.47;;;3.50;99.90;;;;;;5074968;28;20521;-66
2020/12/11 02:02:19;;;;;;;29.87;18.07;;;3.50;99.90;;;;;;5074898;28;20427;-66
2020/12/11 02:04:45;;;;;;;25.00;17.60;;;3.50;99.90;;;;;;5074927;28;20449;-66
2020/12/11 02:07:10;;;;;;;27.67;18.60;;;3.60;99.90;;;;;;5074905;28;20418;-66
2020/12/11 02:09:38;;;;;;;30.07;17.67;;;3.60;99.90;;;;;;5074741;28;20187;-65
2020/12/11 02:12:04;;;;;;;27.53;17.73;;;3.50;99.90;;;;;;5074803;28;20257;-66
2020/12/11 02:14:30;;;;;;;36.67;20.60;;;3.60;99.90;;;;;;5074479;28;20482;-66
2020/12/11 02:17:06;;;;;;;29.80;17.67;;;3.60;99.90;;;;;;5074701;28;20432;-66
2020/12/11 02:19:35;;;;;;;32.03;19.13;;;3.60;99.90;;;;;;5074553;28;20408;-63
2020/12/11 02:22:05;;;;;;;31.83;18.93;;;3.50;99.90;;;;;;5074548;28;20438;-63
2020/12/11 02:24:31;;;;;;;28.67;17.90;;;3.40;99.90;;;;;;5074501;28;20919;-63
2020/12/11 02:26:58;;;;;;;32.07;18.23;;;3.40;99.90;;;;;;5074465;28;20420;-63
2020/12/11 02:29:25;;;;;;;31.00;18.87;;;3.50;99.90;;;;;;5074251;28;20961;-63
2020/12/11 02:31:51;;;;;;;31.10;17.83;;;3.50;99.90;;;;;;5074336;28;20427;-64
2020/12/11 02:34:18;;;;;;;34.80;18.77;;;3.40;99.90;;;;;;5074162;28;20999;-63
2020/12/11 02:36:43;;;;;;;27.07;19.07;;;3.40;99.90;;;;;;5074162;28;20421;-63
2020/12/11 02:39:09;;;;;;;34.70;18.67;;;3.40;99.90;;;;;;5073388;28;20427;-64
2020/12/11 02:41:35;;;;;;;31.67;17.07;;;3.40;99.90;;;;;;5074058;28;20273;-64
2020/12/11 02:44:01;;;;;;;32.77;18.23;;;3.50;99.90;;;;;;5074006;28;20180;-64
2020/12/11 02:46:27;;;;;;;29.10;19.37;;;3.60;99.90;;;;;;5073951;28;20242;-64
2020/12/11 02:48:53;;;;;;;28.30;17.37;;;3.60;99.90;;;;;;5074005;28;20426;-64
2020/12/11 02:51:18;;;;;;;39.83;19.93;;;3.70;99.90;;;;;;5073879;28;20419;-64
2020/12/11 02:53:44;;;;;;;36.57;20.23;;;3.80;99.90;;;;;;5073652;28;20178;-63
2020/12/11 02:56:10;;;;;;;31.80;18.47;;;3.70;99.90;;;;;;5073817;28;20182;-63
2020/12/11 02:58:35;;;;;;;30.60;18.07;;;3.70;99.90;;;;;;5073773;28;20183;-63
2020/12/11 03:01:01;;;;;;;30.83;19.60;;;3.70;99.90;;;;;;5073788;28;20597;-63
2020/12/11 03:03:26;;;;;;;31.90;18.63;;;3.90;99.90;;;;;;5073749;28;20204;-63
2020/12/11 03:05:52;;;;;;;31.03;19.17;;;3.90;99.90;;;;;;5073717;28;20179;-63
2020/12/11 03:08:17;;;;;;;30.90;18.57;;;3.90;99.90;;;;;;5073535;28;20192;-63
2020/12/11 03:10:43;;;;;;;27.10;17.13;;;3.90;99.90;;;;;;5073598;28;20176;-63
2020/12/11 03:13:08;;;;;;;34.93;19.67;;;3.90;99.90;;;;;;5073508;28;20221;-63
2020/12/11 03:15:34;;;;;;;30.80;18.93;;;3.90;99.90;;;;;;5073458;28;20219;-63
2020/12/11 03:17:59;;;;;;;30.63;19.23;;;3.80;99.90;;;;;;5073564;28;20179;-63
2020/12/11 03:20:25;;;;;;;28.70;17.97;;;3.90;99.90;;;;;;5073410;28;20182;-63
2020/12/11 03:22:52;;;;;;;33.57;18.37;;;4.00;99.90;;;;;;5073512;28;20181;-63
2020/12/11 03:25:18;;;;;;;35.80;20.13;;;3.90;99.90;;;;;;5073299;28;20189;-63
2020/12/11 03:27:43;;;;;;;28.67;17.50;;;3.90;99.90;;;;;;5073321;28;20431;-63
2020/12/11 03:30:09;;;;;;;29.53;17.70;;;4.00;99.90;;;;;;5073306;28;20186;-63
2020/12/11 03:32:36;;;;;;;28.03;19.20;;;4.00;99.90;;;;;;5073192;28;20174;-63
2020/12/11 03:35:02;;;;;;;30.87;18.57;;;4.00;99.90;;;;;;5073101;28;20223;-63
2020/12/11 03:37:27;;;;;;;30.27;19.07;;;3.90;99.90;;;;;;5073171;28;20422;-63
2020/12/11 03:39:53;;;;;;;29.07;17.40;;;3.90;99.90;;;;;;5073194;28;20172;-63
2020/12/11 03:42:18;;;;;;;29.83;19.40;;;3.90;99.90;;;;;;5073200;28;20166;-63
2020/12/11 03:45:06;;;;;;;26.20;15.90;;;3.70;99.90;;;;;;5073282;28;20186;-65
2020/12/11 03:47:31;;;;;;;28.83;16.37;;;3.80;99.90;;;;;;5073094;28;20225;-65
2020/12/11 03:49:58;;;;;;;24.77;15.73;;;3.90;99.90;;;;;;5073021;28;20452;-65
2020/12/11 03:52:29;;;;;;;29.37;17.60;;;3.90;99.90;;;;;;5073055;28;20967;-65
2020/12/11 03:54:56;;;;;;;31.37;16.17;;;3.90;99.90;;;;;;5072841;28;20487;-65
2020/12/11 03:57:21;;;;;;;23.20;16.40;;;4.00;99.90;;;;;;5072999;28;20422;-65
2020/12/11 03:59:47;;;;;;;25.10;15.93;;;4.00;99.90;;;;;;5073184;28;20493;-66
2020/12/11 04:02:13;;;;;;;29.57;17.27;;;4.00;99.90;;;;;;5073005;28;20173;-66
2020/12/11 04:04:39;;;;;;;21.80;15.50;;;3.90;99.90;;;;;;5072971;28;20179;-66
2020/12/11 04:07:05;;;;;;;22.20;14.83;;;4.00;99.90;;;;;;5073087;28;20535;-66
2020/12/11 04:09:30;;;;;;;25.77;17.43;;;4.00;99.90;;;;;;5072958;28;20442;-66
2020/12/11 04:11:56;;;;;;;26.43;17.50;;;4.00;99.90;;;;;;5072971;28;20176;-66
2020/12/11 04:14:21;;;;;;;24.90;17.77;;;3.90;99.90;;;;;;5072715;28;20314;-65
2020/12/11 04:16:50;;;;;;;24.53;17.07;;;3.80;99.90;;;;;;5072997;28;20213;-65
2020/12/11 04:19:16;;;;;;;22.90;15.87;;;3.90;99.90;;;;;;5072808;28;20679;-66
2020/12/11 04:21:49;;;;;;;22.27;15.97;;;3.90;99.90;;;;;;5072726;28;20426;-66
2020/12/11 04:24:15;;;;;;;26.33;16.20;;;3.90;99.90;;;;;;5072842;28;20225;-66
2020/12/11 04:26:40;;;;;;;24.50;16.30;;;4.00;99.90;;;;;;5071496;28;20436;-65
2020/12/11 04:29:06;;;;;;;23.87;15.40;;;4.00;99.90;;;;;;5071286;28;20436;-65
2020/12/11 06:30:53;;;;;;;19.57;13.70;;;4.10;99.90;;;;;;5700457;23;21003;-81
2020/12/11 06:33:29;;;;;;;14.60;10.90;;;4.00;99.90;;;;;;4918075;29;20675;-80
2020/12/11 06:35:57;;;;;;;17.53;11.47;;;4.10;99.90;;;;;;4917493;29;20484;-81
2020/12/11 06:38:45;;;;;;;20.57;13.50;;;4.40;99.90;;;;;;4917544;29;20560;-81
2020/12/11 06:41:12;;;;;;;20.83;13.03;;;4.30;99.90;;;;;;4918254;29;21001;-80
2020/12/11 06:43:39;;;;;;;16.10;12.57;;;4.20;99.90;;;;;;4918001;29;20431;-81
2020/12/11 06:46:18;;;;;;;18.40;14.00;;;4.20;99.90;;;;;;4935719;23;20459;-80
2020/12/11 06:49:19;;;;;;;17.60;13.43;;;4.30;99.90;;;;;;4918020;29;20503;-80
2020/12/11 06:51:44;;;;;;;20.93;12.87;;;4.40;99.90;;;;;;4897101;29;20458;-81
2020/12/11 06:54:16;;;;;;;19.33;13.50;;;4.40;99.90;;;;;;4917870;29;20465;-82
2020/12/11 06:56:44;;;;;;;14.20;11.50;;;4.50;99.90;;;;;;4917949;29;20244;-81
2020/12/11 06:59:25;;;;;;;15.23;11.30;;;4.60;99.90;;;;;;4917929;29;20789;-81
2020/12/11 07:01:55;;;;;;;18.55;14.65;;;4.60;99.90;;;;;;4916857;29;20836;-81
2020/12/11 07:04:21;;;;;;;21.17;13.30;;;4.70;99.90;;;;;;4917756;29;20190;-81
2020/12/11 07:06:52;;;;;;;19.30;13.07;;;4.70;99.90;;;;;;4917879;29;20511;-81
2020/12/11 07:09:19;;;;;;;19.43;13.60;;;4.70;99.90;;;;;;4918763;29;20437;-81
2020/12/11 07:11:46;;;;;;;15.93;11.63;;;4.60;99.90;;;;;;4918096;29;20798;-81
2020/12/11 07:14:12;;;;;;;16.80;12.07;;;4.70;99.90;;;;;;4917600;29;20474;-81
2020/12/11 07:16:41;;;;;;;21.30;12.80;;;4.80;99.90;;;;;;4917597;29;20441;-82
2020/12/11 07:19:08;;;;;;;17.67;11.77;;;4.70;99.90;;;;;;4917583;29;20427;-81
2020/12/11 07:21:34;;;;;;;16.40;12.63;;;4.80;99.90;;;;;;4917500;29;20569;-81
2020/12/11 07:24:04;;;;;;;19.83;13.47;;;4.70;99.90;;;;;;4917236;29;20434;-82
2020/12/11 07:26:30;;;;;;;17.67;12.03;;;4.80;99.90;;;;;;4917282;29;20931;-82
2020/12/11 07:29:05;;;;;;;17.70;12.70;;;4.70;99.90;;;;;;4917482;29;20434;-81
2020/12/11 07:31:42;;;;;;;19.57;12.90;;;4.80;99.90;;;;;;4917296;29;20438;-81
2020/12/11 07:34:15;;;;;;;17.80;12.30;;;4.90;99.90;;;;;;4916999;29;20660;-81
2020/12/11 07:36:41;;;;;;;16.10;11.87;;;4.90;99.90;;;;;;4917301;29;20481;-81
2020/12/11 07:39:17;;;;;;;14.50;10.40;;;4.90;99.90;;;;;;4917287;29;20467;-81
2020/12/11 07:41:46;;;;;;;16.17;11.73;;;4.90;99.90;;;;;;4917510;29;20426;-80
2020/12/11 07:44:24;;;;;;;15.87;10.33;;;4.80;99.90;;;;;;4917415;29;20842;-81
2020/12/11 07:46:50;;;;;;;18.57;12.50;;;4.80;99.90;;;;;;4917055;29;20486;-81
2020/12/11 07:49:16;;;;;;;15.03;10.57;;;4.80;99.90;;;;;;4916961;29;20455;-81
2020/12/11 07:51:45;;;;;;;16.50;11.90;;;4.80;99.90;;;;;;4917149;29;20521;-81
2020/12/11 07:54:12;;;;;;;17.63;12.00;;;4.80;99.90;;;;;;4917064;29;20208;-80
2020/12/11 07:56:37;;;;;;;20.90;12.77;;;4.90;99.90;;;;;;4917238;29;20775;-81
2020/12/11 07:59:13;;;;;;;19.63;12.53;;;4.90;99.90;;;;;;4917106;29;20562;-81
2020/12/11 08:01:40;;;;;;;13.30;9.80;;;4.80;99.90;;;;;;4917153;29;20194;-81
2020/12/11 08:04:06;;;;;;;15.40;11.30;;;4.80;99.90;;;;;;4917043;29;20423;-81
2020/12/11 08:06:32;;;;;;;17.50;12.63;;;4.80;99.90;;;;;;4917100;29;20745;-81
2020/12/11 08:09:09;;;;;;;16.90;11.50;;;4.80;99.90;;;;;;4917007;29;20896;-81
2020/12/11 08:11:35;;;;;;;15.23;10.97;;;4.80;99.90;;;;;;4916930;29;20947;-81
2020/12/11 08:14:02;;;;;;;15.30;10.93;;;4.80;99.90;;;;;;4916960;29;20651;-81
2020/12/11 08:16:29;;;;;;;14.23;10.37;;;4.70;99.90;;;;;;4916787;29;20649;-82
2020/12/11 08:18:56;;;;;;;18.40;12.50;;;4.80;99.90;;;;;;4916865;29;20467;-82
2020/12/11 08:21:29;;;;;;;14.33;11.50;;;4.80;99.90;;;;;;4916814;29;20432;-82
2020/12/11 08:23:55;;;;;;;14.60;11.00;;;4.90;99.90;;;;;;4916936;29;20962;-82
2020/12/11 08:26:21;;;;;;;16.57;10.27;;;4.90;99.90;;;;;;4916787;29;20522;-81
2020/12/11 08:29:01;;;;;;;13.17;10.33;;;4.90;99.90;;;;;;4916855;29;20186;-81
2020/12/11 08:31:28;;;;;;;14.53;10.43;;;5.00;99.90;;;;;;4916658;29;20193;-82
2020/12/11 08:34:01;;;;;;;14.40;10.13;;;5.10;99.90;;;;;;4916756;29;20434;-81
2020/12/11 08:36:28;;;;;;;15.20;11.03;;;5.30;99.90;;;;;;4917116;29;20528;-81
2020/12/11 08:39:23;;;;;;;11.90;9.93;;;5.40;99.90;;;;;;4920469;29;20442;-81
2020/12/11 08:45:20;;;;;;;15.90;10.87;;;5.20;99.90;;;;;;4920408;29;20439;-81
2020/12/11 08:53:02;;;;;;;15.53;11.40;;;5.40;99.90;;;;;;4920275;29;20189;-82
2020/12/11 08:55:28;;;;;;;13.80;10.23;;;5.50;99.90;;;;;;4920091;29;20537;-82
2020/12/11 08:57:54;;;;;;;15.80;11.73;;;5.50;99.90;;;;;;4920162;29;20417;-82
2020/12/11 09:00:19;;;;;;;14.10;9.87;;;5.50;99.90;;;;;;4920004;29;20183;-82
2020/12/11 09:02:45;;;;;;;14.30;9.67;;;5.60;99.90;;;;;;4920218;29;20589;-82
2020/12/11 09:05:10;;;;;;;12.70;9.40;;;5.60;99.90;;;;;;4919974;29;20224;-82
2020/12/11 09:07:36;;;;;;;12.37;10.07;;;5.60;99.90;;;;;;4919813;29;20208;-82
2020/12/11 09:10:03;;;;;;;12.40;8.83;;;5.60;99.90;;;;;;4919824;29;20191;-82
2020/12/11 09:12:29;;;;;;;14.00;10.10;;;5.50;99.90;;;;;;4918567;29;20938;-82
2020/12/11 09:14:54;;;;;;;16.53;10.53;;;5.50;99.90;;;;;;4919770;29;20528;-82
2020/12/11 09:17:20;;;;;;;13.70;10.03;;;5.50;99.90;;;;;;4919689;29;20171;-81
2020/12/11 09:19:45;;;;;;;13.40;10.50;;;5.40;99.90;;;;;;4919768;29;20185;-82
2020/12/11 09:22:11;;;;;;;13.93;10.43;;;5.40;99.90;;;;;;4919714;29;20178;-81
2020/12/11 09:24:36;;;;;;;13.83;10.73;;;5.40;99.90;;;;;;4919625;29;20188;-81
2020/12/11 09:27:04;;;;;;;17.33;10.80;;;5.40;99.90;;;;;;4919733;29;20639;-82
2020/12/11 09:29:34;;;;;;;13.47;9.00;;;5.40;99.90;;;;;;4919501;29;20214;-81
2020/12/11 09:32:02;;;;;;;15.30;9.10;;;5.60;99.90;;;;;;4919510;29;20588;-82
2020/12/11 09:34:32;;;;;;;14.80;9.90;;;5.60;99.90;;;;;;4919386;29;20465;-82
2020/12/11 09:36:58;;;;;;;13.70;9.67;;;5.70;99.90;;;;;;4919526;29;20445;-82
2020/12/11 09:39:23;;;;;;;19.40;11.90;;;5.60;99.90;;;;;;4919389;29;20806;-82
2020/12/11 09:42:18;;;;;;;14.17;10.60;;;5.50;99.90;;;;;;4919349;29;20439;-81
2020/12/11 09:45:06;;;;;;;15.33;11.47;;;5.50;99.90;;;;;;4919186;29;20256;-81
2020/12/11 09:52:54;;;;;;;14.77;10.47;;;5.80;99.90;;;;;;4919761;29;20466;-81
2020/12/11 09:55:20;;;;;;;12.90;11.47;;;5.80;99.90;;;;;;4919001;29;20484;-81
2020/12/11 09:57:45;;;;;;;14.13;10.27;;;5.80;99.90;;;;;;4919023;29;20431;-81
2020/12/11 10:00:11;;;;;;;15.90;11.20;;;5.80;99.90;;;;;;4917749;29;20341;-81
2020/12/11 10:05:14;;;;;;;9.90;8.03;;;6.00;99.90;;;;;;4919073;29;20944;-81
2020/12/11 10:07:40;;;;;;;12.10;9.30;;;6.10;99.90;;;;;;4918829;29;20435;-81
2020/12/11 10:10:06;;;;;;;11.47;9.43;;;6.00;99.90;;;;;;4918702;29;20180;-81
2020/12/11 10:12:31;;;;;;;12.00;9.57;;;6.00;99.90;;;;;;4918650;29;20657;-81
2020/12/11 10:15:05;;;;;;;9.43;8.43;;;6.00;99.90;;;;;;4918646;29;20230;-82
2020/12/11 10:17:31;;;;;;;11.50;8.67;;;6.10;99.90;;;;;;4918553;29;20198;-81
2020/12/11 10:19:57;;;;;;;8.90;6.63;;;6.10;99.90;;;;;;4918592;29;20443;-81
2020/12/11 10:22:22;;;;;;;10.20;8.33;;;6.10;99.90;;;;;;4918530;29;20270;-81
2020/12/11 10:24:48;;;;;;;10.63;8.70;;;6.20;99.90;;;;;;4918576;29;20187;-81
2020/12/11 10:27:14;;;;;;;13.03;8.50;;;6.20;99.90;;;;;;4918531;29;20191;-81
2020/12/11 10:29:40;;;;;;;8.83;7.93;;;6.30;99.90;;;;;;4918613;29;20679;-81
2020/12/11 10:32:06;;;;;;;13.80;8.57;;;6.30;99.90;;;;;;4918478;29;20454;-82
2020/12/11 10:34:35;;;;;;;11.40;8.00;;;6.20;99.90;;;;;;4918317;29;20471;-81
2020/12/11 10:37:01;;;;;;;13.63;9.30;;;6.30;99.90;;;;;;4918509;29;20179;-81
2020/12/11 10:39:26;;;;;;;11.17;6.87;;;6.20;99.90;;;;;;4918487;29;20460;-82
2020/12/11 10:41:52;;;;;;;12.50;7.40;;;6.20;99.90;;;;;;4918355;29;20463;-81
2020/12/11 10:44:17;;;;;;;12.00;8.07;;;6.30;99.90;;;;;;4918182;29;20614;-82
2020/12/11 10:46:43;;;;;;;10.57;7.70;;;6.20;99.90;;;;;;4917918;29;20261;-81
2020/12/11 10:49:08;;;;;;;13.50;8.20;;;6.40;99.90;;;;;;4918125;29;20549;-82
2020/12/11 10:51:34;;;;;;;9.50;7.83;;;6.50;99.90;;;;;;4918062;29;20184;-80
2020/12/11 10:54:00;;;;;;;10.13;7.50;;;6.60;99.90;;;;;;4918073;29;20237;-81
2020/12/11 10:56:26;;;;;;;9.10;6.87;;;6.60;99.90;;;;;;4917899;29;20654;-82
2020/12/11 10:58:51;;;;;;;9.03;6.60;;;6.80;99.90;;;;;;4917589;29;20427;-81
2020/12/11 11:01:17;;;;;;;11.00;6.93;;;6.80;99.90;;;;;;4917437;29;20210;-81
2020/12/11 11:03:43;;;;;;;8.93;7.00;;;6.80;99.90;;;;;;4917780;29;20194;-82
2020/12/11 11:06:22;;;;;;;9.50;7.10;;;6.80;99.90;;;;;;4917734;29;20270;-82
2020/12/11 11:11:31;;;;;;;10.87;6.93;;;6.70;99.90;;;;;;4917740;29;20529;-82
2020/12/11 11:17:02;;;;;;;7.80;7.00;;;6.80;99.90;;;;;;4917639;29;20417;-81
2020/12/11 11:24:37;;;;;;;12.27;8.33;;;7.00;99.90;;;;;;4917494;29;20229;-82
2020/12/11 11:29:28;;;;;;;10.93;8.40;;;6.90;99.90;;;;;;4917330;29;21017;-81
2020/12/11 11:31:54;;;;;;;9.40;7.40;;;6.90;99.90;;;;;;4917375;29;20195;-81
2020/12/11 11:34:19;;;;;;;10.57;7.03;;;7.00;99.90;;;;;;4917329;29;20214;-81
2020/12/11 11:36:49;;;;;;;11.60;7.73;;;7.00;99.90;;;;;;4918113;29;20679;-81
2020/12/11 11:39:15;;;;;;;9.37;6.90;;;7.10;99.90;;;;;;4917653;29;20186;-81
2020/12/11 11:41:47;;;;;;;8.93;7.63;;;7.20;99.90;;;;;;4917380;29;20432;-81
2020/12/11 11:46:52;;;;;;;10.17;7.00;;;7.10;99.90;;;;;;4917143;29;20481;-82
2020/12/11 11:50:00;;;;;;;14.77;7.90;;;7.10;99.90;;;;;;4917162;29;20513;-83
2020/12/11 11:52:18;;;;;;;10.43;8.37;;;7.10;99.90;;;;;;4915035;29;20459;-83
2020/12/11 11:54:43;;;;;;;11.30;7.83;;;6.90;99.90;;;;;;4917100;29;21005;-82
2020/12/11 11:57:09;;;;;;;12.20;8.70;;;6.90;99.90;;;;;;4917076;29;20466;-82
2020/12/11 11:59:34;;;;;;;11.00;7.43;;;7.00;99.90;;;;;;4916958;29;20648;-82
2020/12/11 12:02:00;;;;;;;11.77;8.20;;;6.70;99.90;;;;;;4917045;29;20668;-82
2020/12/11 12:04:26;;;;;;;11.73;7.43;;;6.70;99.90;;;;;;4916949;29;20253;-81
2020/12/11 12:06:51;;;;;;;13.50;8.50;;;6.70;99.90;;;;;;4916760;29;20569;-82
2020/12/11 12:09:18;;;;;;;10.80;7.80;;;6.70;99.90;;;;;;4916892;29;20188;-82
2020/12/11 12:11:44;;;;;;;10.67;7.83;;;6.70;99.90;;;;;;4919317;29;20203;-82
2020/12/11 12:14:10;;;;;;;11.00;8.37;;;6.70;99.90;;;;;;4920788;29;20523;-82
2020/12/11 12:16:37;;;;;;;10.97;7.33;;;6.80;99.90;;;;;;4920764;29;20435;-82
2020/12/11 12:19:03;;;;;;;9.97;6.97;;;6.70;99.90;;;;;;4920799;29;20424;-83
2020/12/11 12:29:33;;;;;;;12.70;7.40;;;6.90;99.90;;;;;;4920869;29;20500;-82
2020/12/11 12:32:05;;;;;;;11.10;7.60;;;6.90;99.90;;;;;;4920938;29;20423;-82
2020/12/11 12:37:41;;;;;;;7.57;6.63;;;6.80;99.90;;;;;;4920748;29;20443;-82
2020/12/11 12:44:56;;;;;;;10.23;7.20;;;6.80;99.90;;;;;;4920623;29;20301;-82
2020/12/11 12:47:22;;;;;;;10.40;7.80;;;6.70;99.90;;;;;;4920028;29;20969;-82
2020/12/11 12:49:47;;;;;;;9.77;7.13;;;6.70;99.90;;;;;;4920267;29;20187;-82
2020/12/11 12:52:13;;;;;;;10.40;7.80;;;6.80;99.90;;;;;;4920068;29;20193;-82
2020/12/11 12:54:38;;;;;;;8.97;7.20;;;6.60;99.90;;;;;;4920125;29;20582;-82
2020/12/11 12:57:09;;;;;;;12.40;7.57;;;6.70;99.90;;;;;;4919995;29;20183;-83
2020/12/11 13:04:41;;;;;;;10.80;8.07;;;6.80;99.90;;;;;;4920013;29;20322;-83
2020/12/11 13:07:06;;;;;;;12.07;8.30;;;6.90;99.90;;;;;;4919947;29;20439;-83
2020/12/11 13:09:33;;;;;;;10.60;7.33;;;6.90;99.90;;;;;;4919730;29;20433;-83
2020/12/11 13:11:58;;;;;;;9.60;7.97;;;6.90;99.90;;;;;;4919950;29;20259;-83
2020/12/11 13:14:24;;;;;;;9.27;7.30;;;6.80;99.90;;;;;;4919505;29;21047;-83
2020/12/11 13:16:50;;;;;;;10.20;6.80;;;6.90;99.90;;;;;;4920000;29;20594;-83
2020/12/11 13:19:18;;;;;;;8.23;7.10;;;7.00;99.90;;;;;;4919795;29;20183;-83
2020/12/11 13:21:58;;;;;;;9.13;6.35;;;7.00;99.90;;;;;;4919487;29;20792;-77
2020/12/11 13:27:17;;;;;;;11.40;7.60;;;7.10;99.90;;;;;;4919612;29;20190;-75
2020/12/11 13:29:42;;;;;;;8.40;7.27;;;7.20;99.90;;;;;;4919571;29;20486;-75
2020/12/11 13:32:08;;;;;;;10.10;7.50;;;7.00;99.90;;;;;;4919302;29;20435;-75
2020/12/11 13:34:33;;;;;;;8.50;7.20;;;7.10;99.90;;;;;;4919153;29;20219;-75
2020/12/11 13:36:59;;;;;;;8.60;6.27;;;7.00;99.90;;;;;;4919149;29;20187;-75
2020/12/11 13:39:24;;;;;;;8.47;6.27;;;6.90;99.90;;;;;;4919033;29;20207;-76
2020/12/11 13:41:50;;;;;;;6.90;5.90;;;6.90;99.90;;;;;;4919049;29;20277;-73
2020/12/11 13:44:15;;;;;;;9.80;7.47;;;7.00;99.90;;;;;;4918767;29;20183;-76
2020/12/11 13:46:45;;;;;;;12.40;6.30;;;6.90;99.90;;;;;;4918713;29;20326;-73
2020/12/11 13:49:11;;;;;;;10.70;8.20;;;6.80;99.90;;;;;;4918979;29;20281;-80
2020/12/11 13:51:37;;;;;;;11.27;7.13;;;6.90;99.90;;;;;;4925213;29;20863;-81
2020/12/11 13:54:02;;;;;;;8.57;6.20;;;6.90;99.90;;;;;;4918901;29;20182;-75
2020/12/11 13:56:28;;;;;;;10.03;7.47;;;7.00;99.90;;;;;;4918579;29;20523;-73
2020/12/11 13:58:53;;;;;;;9.93;6.87;;;7.00;99.90;;;;;;4917753;29;20194;-74
2020/12/11 14:10:38;;;;;;;12.00;8.20;;;6.80;99.90;;;;;;4751354;29;20496;-65
2020/12/11 14:13:04;;;;;;;14.07;8.00;;;6.60;99.90;;;;;;4917871;29;20743;-64
2020/12/11 14:15:29;;;;;;;12.40;7.40;;;6.60;99.90;;;;;;4917696;29;20212;-65
2020/12/11 14:22:51;;;;;;;9.17;6.30;;;6.70;99.90;;;;;;4917740;29;20175;-66
2020/12/11 14:25:17;;;;;;;8.60;6.43;;;6.80;99.90;;;;;;4917715;29;20432;-64
2020/12/11 14:27:42;;;;;;;8.83;7.00;;;6.80;99.90;;;;;;4917384;29;20520;-66
2020/12/11 14:30:08;;;;;;;9.83;6.50;;;6.70;99.90;;;;;;4917655;29;20187;-65
2020/12/11 14:32:33;;;;;;;11.20;7.40;;;6.70;99.90;;;;;;4917529;29;20197;-65
2020/12/11 14:34:59;;;;;;;9.60;6.73;;;6.60;99.90;;;;;;4916243;29;20282;-66
2020/12/11 14:37:25;;;;;;;11.93;6.00;;;6.70;99.90;;;;;;4917720;29;20187;-65
2020/12/11 14:39:50;;;;;;;10.17;7.73;;;6.70;99.90;;;;;;4917336;29;20193;-64
2020/12/11 14:42:16;;;;;;;11.07;7.13;;;6.90;99.90;;;;;;5031627;23;20169;-69
2020/12/11 14:44:41;;;;;;;11.73;8.63;;;6.90;99.90;;;;;;4934908;29;20206;-67
2020/12/11 14:47:07;;;;;;;10.97;8.00;;;6.80;99.90;;;;;;4936457;29;20681;-70
2020/12/11 14:49:32;;;;;;;11.50;7.23;;;6.80;99.90;;;;;;4936496;29;20270;-68
2020/12/11 14:51:58;;;;;;;11.70;7.90;;;6.90;99.90;;;;;;4936140;29;20663;-66
2020/12/11 14:54:23;;;;;;;9.20;7.73;;;7.00;99.90;;;;;;4936366;29;20190;-69
2020/12/11 14:56:49;;;;;;;11.67;7.77;;;6.90;99.90;;;;;;4934704;29;20183;-67
2020/12/11 14:59:17;;;;;;;11.90;7.57;;;7.00;99.90;;;;;;4935552;29;20540;-66
2020/12/11 15:01:46;;;;;;;10.77;7.77;;;7.10;99.90;;;;;;4925211;29;20513;-67
2020/12/11 15:04:12;;;;;;;11.47;7.00;;;7.10;99.90;;;;;;4926938;29;20438;-67
2020/12/11 15:06:37;;;;;;;10.80;6.77;;;7.10;99.90;;;;;;4925024;29;20998;-67
2020/12/11 15:09:03;;;;;;;13.37;8.30;;;6.90;99.90;;;;;;4930188;29;20186;-67
2020/12/11 15:11:29;;;;;;;10.97;7.80;;;6.90;99.90;;;;;;4928329;29;20648;-71
2020/12/11 15:13:55;;;;;;;12.80;7.10;;;7.00;99.90;;;;;;4926125;29;20180;-68
2020/12/11 15:16:22;;;;;;;18.03;7.47;;;7.00;99.90;;;;;;4924628;29;20474;-67
2020/12/11 15:18:48;;;;;;;10.43;7.20;;;7.00;99.90;;;;;;4925888;29;20592;-67
2020/12/11 15:21:13;;;;;;;12.00;8.40;;;7.10;99.90;;;;;;4926196;29;20452;-67
2020/12/11 15:23:39;;;;;;;9.87;7.63;;;7.00;99.90;;;;;;4929994;29;20190;-67
2020/12/11 15:26:04;;;;;;;9.17;7.10;;;7.00;99.90;;;;;;4935411;29;20178;-68
2020/12/11 15:28:30;;;;;;;11.37;8.17;;;7.00;99.90;;;;;;4925533;29;20179;-68
2020/12/11 15:30:55;;;;;;;11.03;7.80;;;7.10;99.90;;;;;;4915515;29;20217;-69
2020/12/11 15:33:21;;;;;;;12.87;8.63;;;7.10;99.90;;;;;;4916484;29;20187;-69
2020/12/11 15:35:46;;;;;;;12.07;9.17;;;7.10;99.90;;;;;;4916320;29;20218;-69
2020/12/11 15:38:12;;;;;;;11.33;7.60;;;7.10;99.90;;;;;;4917069;29;20206;-69
2020/12/11 15:40:37;;;;;;;12.43;7.73;;;7.10;99.90;;;;;;4917192;29;20644;-69
2020/12/11 15:43:04;;;;;;;13.23;7.20;;;7.10;99.90;;;;;;4916973;29;20260;-69
2020/12/11 15:45:29;;;;;;;11.85;8.70;;;6.90;99.90;;;;;;4916354;29;20439;-69
2020/12/11 15:47:55;;;;;;;11.13;8.37;;;7.00;99.90;;;;;;4917082;29;20231;-68
2020/12/11 15:50:28;;;;;;;15.07;9.33;;;7.10;99.90;;;;;;4917034;29;20279;-68
2020/12/11 15:52:56;;;;;;;14.80;7.90;;;7.10;99.90;;;;;;4917012;29;20685;-68